METAR Data
IDs: Format: Raw Decoded Include TAF

Data at: 1201 UTC 23 Jun 2021

KHLN 231153Z 25008KT 10SM BKN110 23/07 A2987 RMK AO2 SLP084 T02280072 10250 20200 50012

KHLN 231138Z 2312/2412 VRB06KT P6SM VCSH BKN090
  FM231400 28008KT P6SM SCT120 BKN200
  FM231800 21012G21KT P6SM VCSH SCT080 BKN120
  FM240200 VRB06KT P6SM FEW090 SCT200


KBIL 231153Z 32008KT 10SM FEW100 SCT150 BKN250 21/03 A2979 RMK AO2 SLP044 VIRGA DSNT S-W-NE ACC ALQDS T02060033 10256 20200 53014

KBIL 231124Z 2312/2412 23008KT P6SM SCT150
  FM231500 27010KT P6SM VCSH FEW100 BKN200
  FM232100 36017G27KT P6SM VCTS FEW080CB BKN200
  FM240000 36009KT P6SM BKN250
  FM240600 VRB06KT P6SM BKN250


KBZN 231156Z 35004KT 8SM -RA BKN070 OVC090 17/12 A2997 RMK AO2 WSHFT 1110 RAB34 PRESFR SLP095 P0002 60002 70002 T01670117 10206 20150 51037

KBZN 231138Z 2312/2418 VRB06KT P6SM VCSH BKN090
  TEMPO 2312/2313 VRB15G20KT
  FM231600 31011KT P6SM SCT120 BKN200
  FM232000 33012G20KT P6SM VCSH SCT090 BKN120
  FM240100 VRB06KT P6SM FEW120 SCT200


KBTM 231153Z AUTO 19006KT 10SM FEW100 13/11 A3001 RMK AO2 RAB08E18 SLP099 P0000 60002 70002 T01280111 10194 20128 50001

KBTM 231120Z 2312/2412 VRB05KT P6SM FEW080 BKN100
  FM231900 32008G18KT P6SM BKN100
  FM240300 31006KT P6SM SCT250


KCTB 231156Z AUTO 26016KT 10SM CLR 19/07 A2978 RMK AO2 SLP045 T01940072 10200 20150 53010

KCTB 231138Z 2312/2412 27015G26KT P6SM FEW250
  FM231400 31012G21KT P6SM SCT090 BKN200
  FM231700 33011G20KT P6SM VCTS FEW050 SCT070CB BKN100
  TEMPO 2319/2323 VRB15G30KT 5SM TSRA BR BKN050CB
  FM240200 15009KT P6SM SCT090 BKN150


KDLN 231153Z AUTO 20003KT 10SM CLR 12/11 A3000 RMK AO2 SLP102 60001 70002 T01170106 10172 20117 51012 $
No TAF found for KDLN

KGGW 231153Z AUTO 00000KT 10SM CLR 18/06 A2961 RMK AO2 SLP008 T01780061 10233 20161 52004

KGGW 231134Z 2312/2412 26007KT P6SM FEW090
  FM231800 30017KT P6SM BKN160
  FM240600 VRB06KT P6SM BKN100
  PROB30 2406/2410 6SM TS BR OVC100CB


KGDV 231156Z AUTO 19003KT 10SM CLR 17/04 A2966 RMK AO2 SLP021 T01720039 10200 20156 53004

KGDV 231134Z 2312/2412 25008KT P6SM FEW250
  FM231600 28014KT P6SM SCT120
  FM240900 VRB04KT P6SM SCT140


KGPI 231155Z AUTO 00000KT 10SM CLR 12/10 A2981 RMK AO2 SLP076 T01170100 10200 20111 51010

KGPI 231120Z 2312/2412 01004KT P6SM FEW100
  FM232000 18008G16KT P6SM VCSH SCT060 BKN100
  FM240200 19004KT P6SM SCT250


KGTF 231153Z 21009KT 10SM CLR 18/08 A2981 RMK AO2 SLP059 T01830078 10206 20150 53022 $

KGTF 231138Z 2312/2412 24009KT P6SM FEW090 SCT150
  FM231300 23009KT P6SM VCSH BKN090
  FM231600 27011G18KT P6SM VCSH BKN090
  FM231800 30011G21KT P6SM VCTS FEW060 SCT080CB BKN120
  TEMPO 2319/2323 VRB15G30KT 5SM -SHRA BKN060
  FM240200 22008KT P6SM FEW090 SCT150


KLWT 231154Z AUTO 23008KT 10SM CLR 16/06 A2983 RMK AO2 SLP059 T01560061 10161 20117 53017

KLWT 231138Z 2312/2412 VRB05KT P6SM FEW250
  FM231400 27009KT P6SM SCT090 BKN150
  FM231800 32013G23KT P6SM VCTS SCT080CB BKN120
  TEMPO 2321/2401 VRB20G35KT -SHRA BKN050
  FM240300 VRB06KT P6SM FEW090 SCT150


KLVM 231153Z AUTO 24021G31KT 10SM OVC095 21/08 A2996 RMK AO2 PK WND 24031/1151 RAB00E42 SLP085 P0000 60000 T02110078 10228 20156 53037

KLVM 231124Z 2312/2412 29009KT P6SM VCSH FEW120 BKN200
  FM231900 29015G20KT P6SM VCTS FEW100CB BKN200
  FM240000 33015KT P6SM BKN250
  FM240700 25006KT P6SM BKN250


KMLS 231153Z AUTO 22004KT 8SM CLR 16/02 A2968 RMK AO2 SLP025 T01610022 10233 20156 53003

KMLS 231124Z 2312/2412 VRB06KT P6SM SKC
  FM231400 26009KT P6SM SCT120
  FM231600 31014G22KT P6SM SCT120
  FM240200 36013KT P6SM OVC250
  FM240600 VRB05KT P6SM BKN250


KMSO 231153Z AUTO 03005KT 10SM BKN120 18/10 A2986 RMK AO2 RAE11 SLP082 P0000 60000 T01830100 10228 20167 55000

KMSO 231120Z 2312/2412 04005KT P6SM FEW070 OVC100
  FM231600 25003KT P6SM SCT100
  FM232000 29008G16KT P6SM BKN120
  FM240200 32004KT P6SM SCT250


KSDY 231156Z AUTO 20011KT 10SM CLR 15/07 A2960 RMK AO2 SLP014 6//// 7//// T01500067 10178 20122 51000 PNO $

KSDY 231134Z 2312/2412 23008KT P6SM SKC
  FM231800 28018KT P6SM SCT180
  FM240400 36007KT P6SM SCT180


KOLF 231153Z AUTO 22005KT 10SM CLR 15/08 A2960 RMK AO2 SLP012 7//// T01500078 10183 20117 53004

KOLF 231134Z 2312/2412 24007KT P6SM FEW090
  FM231600 27014KT P6SM FEW250
  FM240600 VRB03KT P6SM BKN100